createdAt,value
2018-07-06T00:02:06.294Z,99.90
2018-07-06T00:05:22.179Z,99.90
2018-07-06T00:08:37.894Z,99.90
2018-07-06T00:11:54.551Z,99.90
2018-07-06T00:15:10.854Z,99.90
2018-07-06T00:18:26.562Z,99.90
2018-07-06T00:21:43.042Z,99.90
2018-07-06T00:24:59.558Z,99.90
2018-07-06T00:28:15.237Z,99.90
2018-07-06T00:31:31.041Z,99.90
2018-07-06T00:34:47.116Z,99.90
2018-07-06T00:38:03.094Z,99.90
2018-07-06T00:41:19.234Z,99.90
2018-07-06T00:45:37.765Z,99.90
2018-07-06T00:48:53.645Z,99.90
2018-07-06T00:52:09.937Z,99.90
2018-07-06T00:55:25.536Z,99.90
2018-07-06T00:58:41.465Z,99.90
2018-07-06T01:01:57.501Z,99.90
2018-07-06T01:05:13.340Z,99.90
2018-07-06T01:08:30.089Z,99.90
2018-07-06T01:11:45.913Z,99.90
2018-07-06T01:15:06.315Z,99.90
2018-07-06T01:18:21.849Z,99.90
2018-07-06T01:24:47.128Z,99.90
2018-07-06T01:28:02.932Z,99.90
2018-07-06T01:31:19.017Z,99.90
2018-07-06T01:34:34.987Z,99.90
2018-07-06T01:37:50.596Z,99.90
2018-07-06T01:41:06.255Z,99.90
2018-07-06T01:44:21.967Z,99.90
2018-07-06T01:47:37.579Z,99.90
2018-07-06T01:50:53.448Z,99.90
2018-07-06T01:54:08.927Z,99.90
2018-07-06T01:57:24.622Z,99.90
2018-07-06T02:00:40.313Z,99.90
2018-07-06T02:03:56.001Z,99.90
2018-07-06T02:07:11.833Z,99.90
2018-07-06T02:10:27.337Z,99.90
2018-07-06T02:13:43.046Z,99.90
2018-07-06T02:16:59.006Z,99.90
2018-07-06T02:20:14.702Z,99.90
2018-07-06T02:23:30.495Z,99.90
2018-07-06T02:26:46.214Z,99.90
2018-07-06T02:30:01.931Z,99.90
2018-07-06T02:33:17.676Z,99.90
2018-07-06T02:36:33.865Z,99.90
2018-07-06T02:39:50.607Z,99.90
2018-07-06T02:43:06.430Z,99.90
2018-07-06T02:46:22.015Z,99.90
2018-07-06T02:49:37.831Z,99.90
2018-07-06T02:52:53.770Z,99.90
2018-07-06T02:56:09.736Z,99.90
2018-07-06T02:59:25.239Z,99.90
2018-07-06T03:02:40.819Z,99.90
2018-07-06T03:05:56.729Z,99.90
2018-07-06T03:09:12.196Z,99.90
2018-07-06T03:12:27.869Z,99.90
2018-07-06T03:15:43.390Z,99.90
2018-07-06T03:19:04.752Z,99.90
2018-07-06T03:22:20.722Z,99.90
2018-07-06T03:25:36.348Z,99.90
2018-07-06T03:28:52.334Z,99.90
2018-07-06T03:32:07.844Z,99.90
2018-07-06T03:35:24.188Z,99.90
2018-07-06T03:38:39.723Z,99.90
2018-07-06T03:41:55.669Z,99.90
2018-07-06T03:45:11.547Z,99.90
2018-07-06T03:48:28.940Z,99.90
2018-07-06T03:51:45.558Z,99.90
2018-07-06T03:55:01.365Z,99.90
2018-07-06T03:58:17.332Z,99.90
2018-07-06T04:01:33.185Z,99.90
2018-07-06T04:04:49.043Z,99.90
2018-07-06T04:08:04.755Z,99.90
2018-07-06T04:11:20.486Z,99.90
2018-07-06T04:14:36.211Z,99.90
2018-07-06T04:17:51.928Z,99.90
2018-07-06T04:21:07.898Z,99.90
2018-07-06T04:24:23.697Z,99.90
2018-07-06T04:27:39.512Z,99.90
2018-07-06T04:30:55.534Z,99.90
2018-07-06T04:34:11.261Z,99.90
2018-07-06T04:37:26.890Z,99.90
2018-07-06T04:40:42.720Z,99.90
2018-07-06T04:47:08.063Z,99.90
2018-07-06T04:50:23.903Z,99.90
2018-07-06T04:53:39.872Z,99.90
2018-07-06T04:56:55.574Z,99.90
2018-07-06T05:00:11.243Z,99.90
2018-07-06T05:03:26.892Z,99.90
2018-07-06T05:06:43.362Z,99.90
2018-07-06T05:09:59.172Z,99.90
2018-07-06T05:13:14.843Z,99.90
2018-07-06T05:16:30.631Z,99.90
2018-07-06T05:19:46.583Z,99.90
2018-07-06T05:23:02.426Z,99.90
2018-07-06T05:26:18.330Z,99.90
2018-07-06T05:29:34.673Z,99.90
2018-07-06T05:32:50.744Z,99.90
2018-07-06T05:36:06.575Z,99.90
2018-07-06T05:39:22.551Z,99.90
2018-07-06T05:42:38.217Z,99.90
2018-07-06T05:45:54.111Z,99.90
2018-07-06T05:49:09.802Z,99.90
2018-07-06T05:52:25.955Z,99.90
2018-07-06T05:55:41.981Z,99.90
2018-07-06T05:58:57.804Z,99.90
2018-07-06T06:02:13.458Z,99.90
2018-07-06T06:05:29.429Z,99.90
2018-07-06T06:08:32.901Z,99.90
2018-07-06T06:11:38.107Z,99.90
2018-07-06T06:14:42.526Z,99.90
2018-07-06T06:17:47.198Z,99.90
2018-07-06T06:20:52.566Z,99.90
2018-07-06T06:23:57.226Z,99.90
2018-07-06T06:27:01.969Z,99.90
2018-07-06T06:30:06.695Z,99.90
2018-07-06T06:33:11.144Z,99.90
2018-07-06T06:36:15.578Z,99.90
2018-07-06T06:39:20.435Z,99.90
2018-07-06T06:42:25.286Z,99.90
2018-07-06T06:45:30.217Z,99.90
2018-07-06T06:48:34.806Z,99.90
2018-07-06T06:51:39.505Z,99.90
2018-07-06T06:54:44.067Z,99.90
2018-07-06T06:58:00.408Z,99.90
2018-07-06T07:01:05.087Z,99.90
2018-07-06T07:04:09.604Z,99.90
2018-07-06T07:07:14.322Z,99.90
2018-07-06T07:10:18.946Z,99.90
2018-07-06T07:13:23.343Z,99.90
2018-07-06T07:16:28.036Z,99.90
2018-07-06T07:19:33.047Z,99.90
2018-07-06T07:22:37.777Z,99.90
2018-07-06T07:25:42.321Z,99.90
2018-07-06T07:28:47.409Z,99.90
2018-07-06T07:31:52.161Z,99.90
2018-07-06T07:34:56.647Z,99.90
2018-07-06T07:38:01.370Z,99.90
2018-07-06T07:41:05.943Z,99.90
2018-07-06T07:44:12.032Z,99.90
2018-07-06T07:47:23.268Z,99.90
2018-07-06T07:50:28.609Z,99.90
2018-07-06T07:53:44.947Z,99.90
2018-07-06T07:56:49.983Z,99.90
2018-07-06T07:59:56.806Z,99.90
2018-07-06T08:03:02.021Z,99.90
2018-07-06T08:06:06.813Z,99.90
2018-07-06T08:09:11.539Z,99.90
2018-07-06T08:12:17.002Z,99.90
2018-07-06T08:15:22.420Z,99.90
2018-07-06T08:18:27.732Z,99.90
2018-07-06T08:21:32.972Z,99.90
2018-07-06T08:24:37.383Z,99.90
2018-07-06T08:27:42.418Z,99.90
2018-07-06T08:30:47.547Z,99.90
2018-07-06T08:34:03.009Z,99.90
2018-07-06T08:37:31.171Z,99.90
2018-07-06T08:40:36.175Z,99.90
2018-07-06T08:43:47.335Z,99.90
2018-07-06T08:46:52.040Z,99.90
2018-07-06T08:49:57.874Z,99.90
2018-07-06T08:53:04.961Z,99.90
2018-07-06T08:56:13.599Z,99.90
2018-07-06T08:59:18.772Z,99.90
2018-07-06T09:02:23.742Z,99.90
2018-07-06T09:05:28.628Z,99.90
2018-07-06T09:08:33.668Z,99.90
2018-07-06T09:11:38.232Z,99.90
2018-07-06T09:14:44.102Z,99.90
2018-07-06T09:17:56.296Z,99.90
2018-07-06T09:21:01.020Z,99.90
2018-07-06T09:24:05.944Z,99.90
2018-07-06T09:27:10.936Z,99.90
2018-07-06T09:30:15.987Z,99.90
2018-07-06T09:33:21.324Z,99.90
2018-07-06T09:36:26.406Z,99.90
2018-07-06T09:39:31.009Z,99.90
2018-07-06T09:42:35.813Z,99.90
2018-07-06T09:45:40.686Z,99.90
2018-07-06T09:48:45.381Z,97.90
2018-07-06T09:51:50.152Z,96.90
2018-07-06T09:54:54.795Z,94.00
2018-07-06T09:57:59.426Z,99.90
2018-07-06T10:01:03.960Z,98.80
2018-07-06T10:04:08.667Z,99.90
2018-07-06T10:07:13.714Z,98.50
2018-07-06T10:10:18.467Z,99.40
2018-07-06T10:13:23.057Z,99.30
2018-07-06T10:16:28.018Z,97.00
2018-07-06T10:19:32.679Z,97.40
2018-07-06T10:22:37.068Z,94.30
2018-07-06T10:25:41.624Z,95.10
2018-07-06T10:29:08.356Z,95.80
2018-07-06T10:32:19.717Z,98.50
2018-07-06T10:35:24.349Z,98.80
2018-07-06T10:38:28.983Z,99.00
2018-07-06T10:41:33.566Z,96.00
2018-07-06T10:44:38.077Z,95.80
2018-07-06T10:47:42.529Z,99.10
2018-07-06T10:50:47.623Z,98.60
2018-07-06T10:53:52.411Z,98.50
2018-07-06T10:56:57.015Z,99.10
2018-07-06T11:00:01.541Z,98.10
2018-07-06T11:03:05.974Z,93.90
2018-07-06T11:06:10.403Z,98.00
2018-07-06T11:09:14.950Z,92.60
2018-07-06T11:12:19.450Z,95.30
2018-07-06T11:15:23.902Z,95.20
2018-07-06T11:18:34.685Z,94.70
2018-07-06T11:21:40.854Z,91.30
2018-07-06T11:24:47.738Z,91.40
2018-07-06T11:27:54.693Z,92.40
2018-07-06T11:31:00.468Z,94.30
2018-07-06T11:34:06.627Z,93.50
2018-07-06T11:37:11.551Z,97.00
2018-07-06T11:40:24.497Z,97.00
2018-07-06T11:43:30.351Z,99.90
2018-07-06T11:46:35.912Z,97.10
2018-07-06T11:49:43.064Z,95.80
2018-07-06T11:52:47.993Z,97.40
2018-07-06T11:55:52.581Z,97.60
2018-07-06T11:58:59.734Z,96.00
2018-07-06T12:02:04.343Z,96.30
2018-07-06T12:05:09.128Z,98.00
2018-07-06T12:08:13.450Z,97.80
2018-07-06T12:11:17.702Z,96.60
2018-07-06T12:14:22.027Z,97.10
2018-07-06T12:17:27.389Z,97.30
2018-07-06T12:20:33.398Z,96.90
2018-07-06T12:23:38.958Z,97.60
2018-07-06T12:26:43.543Z,96.80
2018-07-06T12:29:50.629Z,96.60
2018-07-06T12:32:59.128Z,96.90
2018-07-06T12:36:04.910Z,97.30
2018-07-06T12:39:33.528Z,97.60
2018-07-06T12:42:39.760Z,97.60
2018-07-06T12:45:53.524Z,97.70
2018-07-06T12:49:17.263Z,98.40
2018-07-06T12:59:46.640Z,96.70
2018-07-06T13:03:00.340Z,98.30
2018-07-06T13:06:15.669Z,96.50
2018-07-06T13:09:23.141Z,97.70
2018-07-06T13:12:29.020Z,96.60
2018-07-06T13:15:35.696Z,97.00
2018-07-06T13:18:41.447Z,96.40
2018-07-06T13:21:47.572Z,95.80
2018-07-06T13:24:52.792Z,97.00
2018-07-06T13:27:57.476Z,96.40
2018-07-06T13:31:03.031Z,95.90
2018-07-06T13:34:09.957Z,95.90
2018-07-06T13:37:15.665Z,95.00
2018-07-06T13:40:21.405Z,96.20
2018-07-06T13:43:28.200Z,95.60
2018-07-06T13:46:36.290Z,95.50
2018-07-06T13:49:46.931Z,97.00
2018-07-06T13:53:03.097Z,97.00
2018-07-06T13:56:15.751Z,95.80
2018-07-06T13:59:26.552Z,95.30
2018-07-06T14:09:31.703Z,94.40
2018-07-06T14:12:40.762Z,95.70
2018-07-06T14:15:46.003Z,95.20
2018-07-06T14:19:03.517Z,94.60
2018-07-06T14:22:19.762Z,93.90
2018-07-06T14:25:30.650Z,94.60
2018-07-06T14:28:36.461Z,95.10
2018-07-06T14:31:43.554Z,95.50
2018-07-06T14:34:52.461Z,94.90
2018-07-06T14:37:57.343Z,94.10
2018-07-06T14:41:02.130Z,94.30
2018-07-06T14:44:10.549Z,95.00
2018-07-06T14:47:18.751Z,94.70
2018-07-06T14:50:26.301Z,93.40
2018-07-06T14:53:32.030Z,92.70
2018-07-06T14:56:37.444Z,94.00
2018-07-06T14:59:43.061Z,93.40
2018-07-06T15:02:48.056Z,92.00
2018-07-06T15:05:53.621Z,91.50
2018-07-06T15:08:59.454Z,91.30
2018-07-06T15:12:04.798Z,90.90
2018-07-06T15:15:09.425Z,91.80
2018-07-06T15:18:14.282Z,91.00
2018-07-06T15:21:19.179Z,91.30
2018-07-06T15:24:24.652Z,90.70
2018-07-06T15:27:30.728Z,90.10
2018-07-06T15:30:36.758Z,91.20
2018-07-06T15:33:42.758Z,89.30
2018-07-06T15:36:48.884Z,88.90
2018-07-06T15:39:53.540Z,87.20
2018-07-06T15:42:59.019Z,85.40
2018-07-06T15:46:04.739Z,85.30
2018-07-06T15:49:09.992Z,85.90
2018-07-06T15:52:15.935Z,85.00
2018-07-06T15:55:21.380Z,84.70
2018-07-06T15:58:28.043Z,84.70
2018-07-06T16:01:32.968Z,83.70
2018-07-06T16:04:37.683Z,83.80
2018-07-06T16:07:42.641Z,84.00
2018-07-06T16:10:47.979Z,82.90
2018-07-06T16:13:53.776Z,83.30
2018-07-06T16:16:59.437Z,81.50
2018-07-06T16:20:04.972Z,80.40
2018-07-06T16:23:11.409Z,80.40
2018-07-06T16:26:16.965Z,79.90
2018-07-06T16:29:22.727Z,80.70
2018-07-06T16:32:27.662Z,81.70
2018-07-06T16:35:33.696Z,80.10
2018-07-06T16:38:39.366Z,79.80
2018-07-06T16:41:45.069Z,80.10
2018-07-06T16:44:50.752Z,79.60
2018-07-06T16:47:56.801Z,77.20
2018-07-06T16:51:02.251Z,76.80
2018-07-06T16:54:06.960Z,77.80
2018-07-06T16:57:13.439Z,77.20
2018-07-06T17:00:19.895Z,78.50
2018-07-06T17:03:24.285Z,76.00
2018-07-06T17:06:28.787Z,77.80
2018-07-06T17:58:25.932Z,71.80
2018-07-06T18:01:50.759Z,71.70
2018-07-06T18:04:55.482Z,72.70
2018-07-06T18:08:01.050Z,71.20
2018-07-06T18:11:08.822Z,72.60
2018-07-06T18:14:14.971Z,71.00
2018-07-06T18:17:20.639Z,73.90
2018-07-06T18:20:25.572Z,71.40
2018-07-06T18:23:30.846Z,72.10
2018-07-06T18:26:37.388Z,73.90
2018-07-06T18:29:42.728Z,70.40
2018-07-06T18:36:02.184Z,72.50
2018-07-06T18:39:13.118Z,71.70
2018-07-06T18:42:18.604Z,72.70
2018-07-06T18:45:23.590Z,73.10
2018-07-06T18:48:34.141Z,73.50
2018-07-06T18:59:22.656Z,75.30
2018-07-06T19:11:33.047Z,78.70
2018-07-06T19:14:42.853Z,79.50
2018-07-06T19:17:47.358Z,81.40
2018-07-06T19:20:51.722Z,85.40
2018-07-06T19:23:56.140Z,86.20
2018-07-06T19:27:00.489Z,88.30
2018-07-06T19:30:05.118Z,89.10
2018-07-06T19:33:10.477Z,92.10
2018-07-06T19:36:15.839Z,90.60
2018-07-06T19:39:20.435Z,92.00
2018-07-06T19:42:24.787Z,91.80
2018-07-06T19:45:29.423Z,91.20
2018-07-06T19:48:34.453Z,91.90
2018-07-06T19:51:38.852Z,89.30
2018-07-06T19:54:43.512Z,90.20
2018-07-06T19:57:48.217Z,86.00
2018-07-06T20:00:53.021Z,88.20
2018-07-06T20:03:57.526Z,87.30
2018-07-06T20:07:02.052Z,89.30
2018-07-06T20:10:06.712Z,88.50
2018-07-06T20:13:11.530Z,87.50
2018-07-06T20:16:16.310Z,88.40
2018-07-06T20:19:21.484Z,87.60
2018-07-06T20:22:26.189Z,88.70
2018-07-06T20:26:58.083Z,92.00
2018-07-06T20:30:02.669Z,87.10
2018-07-06T20:33:07.314Z,91.10
2018-07-06T20:36:11.828Z,89.00
2018-07-06T20:39:18.628Z,91.50
2018-07-06T20:42:24.143Z,92.00
2018-07-06T20:45:29.749Z,94.70
2018-07-06T20:48:35.209Z,92.80
2018-07-06T20:51:39.546Z,93.80
2018-07-06T20:54:44.103Z,93.90
2018-07-06T20:57:48.457Z,93.80
2018-07-06T21:00:52.815Z,94.90
2018-07-06T21:03:57.360Z,95.70
2018-07-06T21:07:01.725Z,95.70
2018-07-06T21:10:06.036Z,99.90
2018-07-06T21:13:10.489Z,99.90
2018-07-06T21:19:18.604Z,99.90
2018-07-06T21:22:23.435Z,99.90
2018-07-06T21:25:27.715Z,99.90
2018-07-06T21:28:33.008Z,99.90
2018-07-06T21:31:37.472Z,99.90
2018-07-06T21:34:42.057Z,99.90
2018-07-06T21:37:46.529Z,99.90
2018-07-06T21:40:51.364Z,99.90
2018-07-06T21:43:55.939Z,99.90
2018-07-06T21:47:00.376Z,99.90
2018-07-06T21:50:05.004Z,99.90
2018-07-06T21:53:09.386Z,99.90
2018-07-06T21:56:14.038Z,99.90
2018-07-06T21:59:18.558Z,99.90
2018-07-06T22:02:23.437Z,99.90
2018-07-06T22:05:29.544Z,99.90
2018-07-06T22:08:34.506Z,99.90
2018-07-06T22:11:39.225Z,99.90
2018-07-06T22:14:44.096Z,99.90
2018-07-06T22:17:48.844Z,99.90
2018-07-06T22:20:53.446Z,99.90
2018-07-06T22:23:58.057Z,99.90
2018-07-06T22:27:02.471Z,99.90
2018-07-06T22:30:07.211Z,99.90
2018-07-06T22:33:13.014Z,99.90
2018-07-06T22:36:17.766Z,99.90
2018-07-06T22:39:22.644Z,99.90
2018-07-06T22:42:27.126Z,99.90
2018-07-06T22:45:44.884Z,99.90
2018-07-06T22:48:49.704Z,99.90
2018-07-06T22:51:55.168Z,99.90
2018-07-06T22:55:13.657Z,99.90
2018-07-06T22:58:29.751Z,99.90
2018-07-06T23:01:36.142Z,99.90
2018-07-06T23:04:45.305Z,99.90
2018-07-06T23:07:52.553Z,99.90
2018-07-06T23:10:58.682Z,99.90
2018-07-06T23:14:04.207Z,99.90
2018-07-06T23:17:12.736Z,99.90
2018-07-06T23:20:21.872Z,99.90
2018-07-06T23:23:47.243Z,99.90
2018-07-06T23:26:57.051Z,99.90
2018-07-06T23:30:02.749Z,99.90
2018-07-06T23:33:42.826Z,99.90
2018-07-06T23:36:47.369Z,99.90
2018-07-06T23:39:51.945Z,99.90
2018-07-06T23:42:57.731Z,99.90
2018-07-06T23:46:07.690Z,99.90
2018-07-06T23:49:12.167Z,99.90
2018-07-06T23:52:16.496Z,99.90
2018-07-06T23:55:21.024Z,99.90
2018-07-06T23:58:25.404Z,99.90
